createdAt,value
2022-10-18T00:00:19.593Z,30.80
2022-10-18T00:03:06.405Z,25.90
2022-10-18T00:05:33.765Z,26.90
2022-10-18T00:08:00.607Z,32.60
2022-10-18T00:10:27.503Z,28.80
2022-10-18T00:12:54.214Z,28.50
2022-10-18T00:15:20.938Z,28.10
2022-10-18T00:17:47.986Z,25.10
2022-10-18T00:20:14.813Z,22.40
2022-10-18T00:22:41.990Z,23.80
2022-10-18T00:25:09.641Z,21.10
2022-10-18T00:27:36.831Z,20.90
2022-10-18T00:30:04.698Z,23.00
2022-10-18T00:32:36.598Z,18.40
2022-10-18T00:35:04.437Z,19.60
2022-10-18T00:37:32.265Z,18.50
2022-10-18T00:39:58.963Z,16.80
2022-10-18T00:42:33.467Z,18.30
2022-10-18T00:45:38.092Z,18.30
2022-10-18T00:48:05.112Z,15.20
2022-10-18T00:50:34.104Z,14.90
2022-10-18T00:53:04.537Z,12.50
2022-10-18T00:55:33.686Z,12.50
2022-10-18T00:58:01.500Z,11.30
2022-10-18T01:00:28.329Z,13.80
2022-10-18T01:02:55.699Z,11.70
2022-10-18T01:05:23.541Z,12.10
2022-10-18T01:08:05.523Z,12.90
2022-10-18T01:11:03.138Z,14.10
2022-10-18T01:13:48.205Z,11.60
2022-10-18T01:16:14.846Z,12.00
2022-10-18T01:19:06.314Z,11.30
2022-10-18T01:21:44.481Z,10.50
2022-10-18T01:24:33.379Z,10.10
2022-10-18T01:27:45.043Z,10.60
2022-10-18T01:30:33.793Z,10.90
2022-10-18T01:33:06.830Z,10.80
2022-10-18T01:35:39.257Z,10.40
2022-10-18T01:38:10.897Z,13.70
2022-10-18T01:40:40.618Z,13.10
2022-10-18T01:43:09.732Z,8.70
2022-10-18T01:45:36.774Z,11.80
2022-10-18T01:48:04.034Z,9.50
2022-10-18T01:50:33.227Z,12.70
2022-10-18T01:53:00.723Z,9.20
2022-10-18T01:55:57.228Z,11.10
2022-10-18T01:58:40.562Z,11.50
2022-10-18T02:01:17.411Z,12.80
2022-10-18T02:03:48.798Z,11.20
2022-10-18T02:06:31.673Z,11.30
2022-10-18T02:09:13.416Z,9.60
2022-10-18T02:11:42.976Z,10.90
2022-10-18T02:14:13.849Z,12.80
2022-10-18T02:16:45.729Z,11.10
2022-10-18T02:19:21.925Z,11.40
2022-10-18T02:21:51.210Z,11.10
2022-10-18T02:24:20.751Z,12.30
2022-10-18T02:26:47.530Z,14.20
2022-10-18T02:29:14.372Z,18.00
2022-10-18T02:31:50.311Z,12.70
2022-10-18T02:34:20.355Z,12.40
2022-10-18T02:36:53.962Z,10.80
2022-10-18T02:39:26.937Z,10.60
2022-10-18T02:41:54.912Z,11.30
2022-10-18T02:44:21.903Z,11.70
2022-10-18T02:46:49.057Z,9.70
2022-10-18T02:49:16.528Z,10.00
2022-10-18T02:51:43.431Z,38.10
2022-10-18T02:54:10.263Z,18.10
2022-10-18T02:56:37.024Z,33.00
2022-10-18T02:59:06.716Z,15.40
2022-10-18T03:01:35.628Z,14.00
2022-10-18T03:04:03.376Z,33.80
2022-10-18T03:06:30.629Z,12.90
2022-10-18T03:08:57.282Z,14.40
2022-10-18T03:11:24.319Z,13.60
2022-10-18T03:13:51.058Z,15.50
2022-10-18T03:16:17.902Z,13.90
2022-10-18T03:18:44.954Z,16.70
2022-10-18T03:21:11.829Z,15.80
2022-10-18T03:23:39.610Z,16.00
2022-10-18T03:26:06.305Z,17.30
2022-10-18T03:28:33.100Z,16.60
2022-10-18T03:31:01.751Z,16.10
2022-10-18T03:33:29.375Z,12.30
2022-10-18T03:35:56.065Z,17.50
2022-10-18T03:38:22.985Z,14.00
2022-10-18T03:40:49.687Z,13.30
2022-10-18T03:43:16.470Z,16.40
2022-10-18T03:45:43.519Z,14.30
2022-10-18T03:48:10.291Z,15.40
2022-10-18T03:50:37.002Z,18.00
2022-10-18T03:53:03.954Z,16.70
2022-10-18T03:55:31.001Z,17.10
2022-10-18T03:57:57.685Z,18.80
2022-10-18T04:00:24.588Z,17.00
2022-10-18T04:02:53.489Z,20.50
2022-10-18T04:05:23.806Z,21.40
2022-10-18T04:07:50.770Z,24.60
2022-10-18T04:10:18.222Z,23.20
2022-10-18T04:12:44.839Z,23.20
2022-10-18T04:15:12.003Z,23.60
2022-10-18T04:17:38.846Z,21.80
2022-10-18T04:20:06.335Z,22.50
2022-10-18T04:22:33.049Z,26.80
2022-10-18T04:24:59.675Z,26.10
2022-10-18T04:27:26.432Z,29.60
2022-10-18T04:29:53.172Z,38.60
2022-10-18T04:32:19.917Z,32.60
2022-10-18T04:34:46.657Z,46.30
2022-10-18T04:37:13.601Z,36.90
2022-10-18T04:39:40.321Z,34.90
2022-10-18T04:42:06.962Z,36.50
2022-10-18T04:44:34.035Z,49.60
2022-10-18T04:47:00.707Z,39.70
2022-10-18T04:49:27.415Z,43.00
2022-10-18T04:51:54.101Z,43.40
2022-10-18T04:54:22.803Z,40.40
2022-10-18T04:56:51.936Z,43.00
2022-10-18T04:59:19.061Z,32.70
2022-10-18T05:01:45.719Z,33.10
2022-10-18T05:04:12.686Z,32.60
2022-10-18T05:06:39.628Z,33.40
2022-10-18T05:09:06.251Z,32.80
2022-10-18T05:11:33.318Z,33.20
2022-10-18T05:14:00.054Z,33.00
2022-10-18T05:16:27.999Z,28.60
2022-10-18T05:18:55.131Z,27.10
2022-10-18T05:21:22.132Z,27.10
2022-10-18T05:23:48.900Z,27.00
2022-10-18T05:26:15.817Z,33.30
2022-10-18T05:28:42.454Z,38.10
2022-10-18T05:31:11.349Z,28.80
2022-10-18T05:33:38.604Z,28.60
2022-10-18T05:36:06.166Z,27.20
2022-10-18T05:38:33.190Z,26.40
2022-10-18T05:41:05.132Z,35.70
2022-10-18T05:43:31.923Z,34.70
2022-10-18T05:45:58.688Z,52.20
2022-10-18T05:48:26.254Z,47.20
2022-10-18T05:50:52.966Z,53.80
2022-10-18T05:53:35.879Z,43.50
2022-10-18T05:56:05.603Z,43.40
2022-10-18T05:58:32.961Z,42.40
2022-10-18T06:01:01.158Z,43.10
2022-10-18T06:03:30.459Z,47.10
2022-10-18T06:06:02.915Z,39.10
2022-10-18T06:08:29.963Z,33.70
2022-10-18T06:10:56.811Z,30.10
2022-10-18T06:13:23.969Z,26.20
2022-10-18T06:15:55.553Z,22.30
2022-10-18T06:18:25.889Z,23.40
2022-10-18T06:20:58.404Z,21.10
2022-10-18T06:23:27.490Z,32.60
2022-10-18T06:25:58.647Z,39.60
2022-10-18T06:28:26.323Z,38.10
2022-10-18T06:30:53.246Z,24.40
2022-10-18T06:33:19.958Z,22.70
2022-10-18T06:36:17.592Z,28.10
2022-10-18T06:38:44.753Z,27.20
2022-10-18T06:41:11.880Z,35.30
2022-10-18T06:43:39.135Z,33.50
2022-10-18T06:46:07.602Z,30.60
2022-10-18T06:48:35.968Z,23.10
2022-10-18T06:51:05.004Z,50.80
2022-10-18T06:53:35.236Z,17.70
2022-10-18T06:56:12.120Z,14.60
2022-10-18T06:58:42.229Z,25.20
2022-10-18T07:01:13.025Z,21.40
2022-10-18T07:03:39.769Z,17.00
2022-10-18T07:09:27.141Z,19.70
2022-10-18T07:11:55.319Z,16.30
2022-10-18T07:14:26.916Z,12.70
2022-10-18T07:16:58.834Z,18.60
2022-10-18T07:19:25.543Z,90.00
2022-10-18T07:21:52.428Z,52.00
2022-10-18T07:24:19.059Z,24.80
2022-10-18T07:26:46.218Z,15.30
2022-10-18T07:29:12.927Z,14.30
2022-10-18T07:31:40.392Z,21.90
2022-10-18T07:34:10.130Z,16.60
2022-10-18T07:36:37.489Z,15.40
2022-10-18T07:39:04.946Z,21.50
2022-10-18T07:41:33.532Z,15.60
2022-10-18T07:44:01.980Z,16.80
2022-10-18T07:46:28.800Z,17.70
2022-10-18T07:48:56.114Z,13.80
2022-10-18T07:51:23.669Z,14.60
2022-10-18T07:53:50.551Z,12.60
2022-10-18T07:56:20.569Z,11.60
2022-10-18T07:58:53.073Z,20.40
2022-10-18T08:01:24.658Z,18.20
2022-10-18T08:03:52.950Z,11.30
2022-10-18T08:06:21.328Z,12.20
2022-10-18T08:08:48.401Z,12.70
2022-10-18T08:11:18.289Z,11.90
2022-10-18T08:13:45.912Z,17.00
2022-10-18T08:16:16.184Z,39.10
2022-10-18T08:18:43.441Z,16.40
2022-10-18T08:21:12.163Z,38.00
2022-10-18T08:23:39.175Z,37.00
2022-10-18T08:26:09.157Z,61.00
2022-10-18T08:28:37.189Z,25.00
2022-10-18T08:31:06.987Z,14.40
2022-10-18T08:33:35.714Z,9.90
2022-10-18T08:36:05.584Z,9.60
2022-10-18T08:38:38.344Z,15.70
2022-10-18T08:41:33.272Z,37.10
2022-10-18T08:44:11.995Z,11.80
2022-10-18T08:46:45.246Z,9.10
2022-10-18T08:49:23.612Z,11.00
2022-10-18T08:51:51.782Z,8.60
2022-10-18T08:54:29.476Z,10.50
2022-10-18T08:57:01.033Z,20.30
2022-10-18T08:59:38.731Z,17.20
2022-10-18T09:02:28.514Z,7.60
2022-10-18T09:05:14.200Z,11.90
2022-10-18T09:07:51.010Z,18.30
2022-10-18T09:10:17.860Z,22.00
2022-10-18T09:13:01.666Z,11.90
2022-10-18T09:15:41.633Z,10.90
2022-10-18T09:18:14.503Z,43.50
2022-10-18T09:20:58.251Z,117.70
2022-10-18T09:24:05.516Z,16.80
2022-10-18T09:26:42.418Z,11.90
2022-10-18T09:29:09.132Z,10.50
2022-10-18T09:31:55.985Z,10.60
2022-10-18T09:34:27.577Z,10.60
2022-10-18T09:36:55.807Z,23.10
2022-10-18T09:39:29.206Z,31.70
2022-10-18T09:42:11.618Z,11.20
2022-10-18T09:44:45.524Z,16.50
2022-10-18T09:47:18.680Z,11.80
2022-10-18T09:49:50.478Z,11.80
2022-10-18T09:52:36.376Z,12.90
2022-10-18T09:55:14.368Z,16.10
2022-10-18T09:57:47.461Z,14.50
2022-10-18T10:00:51.279Z,12.00
2022-10-18T10:03:18.019Z,13.40
2022-10-18T10:05:45.483Z,27.40
2022-10-18T10:08:12.838Z,23.60
2022-10-18T10:10:45.531Z,41.40
2022-10-18T10:13:17.077Z,16.50
2022-10-18T10:15:54.670Z,12.00
2022-10-18T10:18:22.847Z,13.40
2022-10-18T10:21:02.697Z,15.50
2022-10-18T10:23:38.585Z,11.00
2022-10-18T10:26:34.379Z,13.50
2022-10-18T10:29:01.342Z,10.60
2022-10-18T10:31:33.493Z,12.60
2022-10-18T10:34:19.790Z,11.50
2022-10-18T10:36:54.524Z,9.00
2022-10-18T10:39:24.036Z,11.20
2022-10-18T10:41:57.468Z,9.80
2022-10-18T10:44:31.340Z,10.10
2022-10-18T10:46:59.413Z,9.40
2022-10-18T10:49:47.350Z,9.50
2022-10-18T10:52:36.874Z,9.30
2022-10-18T10:55:23.246Z,8.70
2022-10-18T10:57:55.243Z,9.60
2022-10-18T11:00:52.117Z,9.60
2022-10-18T11:03:28.909Z,11.30
2022-10-18T11:06:00.106Z,8.60
2022-10-18T11:08:41.001Z,9.40
2022-10-18T11:11:23.152Z,10.70
2022-10-18T11:14:13.639Z,9.00
2022-10-18T11:17:08.219Z,15.20
2022-10-18T11:20:00.786Z,10.80
2022-10-18T11:22:35.844Z,16.00
2022-10-18T11:25:05.027Z,14.50
2022-10-18T11:28:05.230Z,9.80
2022-10-18T11:30:41.516Z,7.10
2022-10-18T11:33:56.468Z,9.80
2022-10-18T11:36:50.469Z,14.90
2022-10-18T11:39:58.788Z,13.80
2022-10-18T11:42:53.077Z,12.10
2022-10-18T11:48:01.842Z,12.70
2022-10-18T11:50:58.041Z,11.60
2022-10-18T11:53:29.469Z,12.10
2022-10-18T11:55:56.158Z,10.10
2022-10-18T11:58:38.066Z,10.40
2022-10-18T12:01:28.616Z,10.20
2022-10-18T12:04:18.672Z,9.80
2022-10-18T12:06:48.317Z,10.20
2022-10-18T12:09:36.823Z,9.50
2022-10-18T12:12:06.816Z,8.90
2022-10-18T12:14:38.446Z,10.30
2022-10-18T12:17:51.327Z,8.80
2022-10-18T12:20:30.836Z,11.30
2022-10-18T12:23:35.371Z,8.60
2022-10-18T12:29:26.524Z,9.30
2022-10-18T12:31:57.463Z,7.70
2022-10-18T12:34:42.899Z,9.20
2022-10-18T12:37:31.277Z,9.30
2022-10-18T12:40:18.763Z,10.50
2022-10-18T12:42:50.462Z,9.90
2022-10-18T12:45:34.494Z,8.70
2022-10-18T12:50:43.345Z,10.30
2022-10-18T12:53:09.921Z,9.50
2022-10-18T12:58:13.412Z,10.30
2022-10-18T13:00:43.123Z,8.50
2022-10-18T13:03:10.274Z,8.60
2022-10-18T13:05:53.783Z,9.70
2022-10-18T13:08:31.192Z,9.80
2022-10-18T13:11:01.223Z,10.50
2022-10-18T13:13:50.502Z,9.30
2022-10-18T13:16:25.110Z,11.00
2022-10-18T13:18:56.777Z,11.40
2022-10-18T13:21:34.283Z,9.70
2022-10-18T13:24:16.227Z,12.60
2022-10-18T13:27:17.478Z,11.30
2022-10-18T13:29:55.931Z,12.90
2022-10-18T13:32:36.810Z,9.70
2022-10-18T13:35:24.974Z,10.70
2022-10-18T13:37:59.495Z,11.30
2022-10-18T13:40:26.419Z,9.60
2022-10-18T13:42:53.186Z,9.20
2022-10-18T13:45:32.609Z,11.10
2022-10-18T13:48:30.465Z,9.30
2022-10-18T13:51:11.858Z,11.30
2022-10-18T13:54:12.430Z,9.90
2022-10-18T13:57:11.194Z,9.60
2022-10-18T13:59:59.451Z,10.00
2022-10-18T14:02:54.552Z,9.80
2022-10-18T14:05:41.154Z,10.40
2022-10-18T14:08:19.945Z,11.20
2022-10-18T14:11:21.791Z,10.30
2022-10-18T14:13:55.607Z,18.40
2022-10-18T14:16:41.252Z,11.20
2022-10-18T14:19:19.760Z,10.30
2022-10-18T14:22:04.034Z,9.00
2022-10-18T14:24:31.366Z,14.40
2022-10-18T14:27:12.443Z,13.00
2022-10-18T14:29:40.289Z,15.20
2022-10-18T14:32:10.314Z,10.10
2022-10-18T14:34:38.408Z,12.10
2022-10-18T14:37:05.593Z,12.10
2022-10-18T14:39:32.908Z,11.90
2022-10-18T14:42:00.571Z,13.60
2022-10-18T14:44:31.622Z,13.20
2022-10-18T14:47:19.398Z,11.10
2022-10-18T14:49:46.504Z,10.30
2022-10-18T14:52:17.135Z,10.60
2022-10-18T14:54:44.749Z,11.10
2022-10-18T14:57:22.854Z,9.10
2022-10-18T14:59:56.434Z,9.10
2022-10-18T15:02:29.972Z,9.00
2022-10-18T15:07:28.676Z,13.40
2022-10-18T15:09:58.839Z,13.40
2022-10-18T15:12:27.690Z,19.90
2022-10-18T15:14:55.316Z,16.50
2022-10-18T15:17:28.383Z,19.40
2022-10-18T15:20:18.094Z,22.10
2022-10-18T15:22:46.318Z,25.40
2022-10-18T15:25:29.341Z,31.80
2022-10-18T15:27:59.443Z,30.40
2022-10-18T15:30:44.073Z,37.20
2022-10-18T15:33:23.796Z,41.90
2022-10-18T15:35:52.898Z,41.90
2022-10-18T15:38:27.633Z,41.90
2022-10-18T15:40:54.971Z,38.80
2022-10-18T15:43:27.593Z,40.30
2022-10-18T15:46:06.239Z,39.10
2022-10-18T15:48:35.596Z,36.50
2022-10-18T15:51:05.408Z,40.60
2022-10-18T15:53:51.882Z,115.50
2022-10-18T15:56:35.133Z,62.30
2022-10-18T15:59:21.645Z,45.30
2022-10-18T16:01:48.762Z,47.50
2022-10-18T16:04:26.239Z,68.60
2022-10-18T16:06:54.970Z,113.30
2022-10-18T16:09:23.682Z,94.90
2022-10-18T16:11:55.810Z,112.20
2022-10-18T16:14:25.504Z,103.30
2022-10-18T16:17:02.454Z,107.10
2022-10-18T16:19:29.986Z,101.40
2022-10-18T16:21:56.561Z,62.90
2022-10-18T16:24:23.340Z,64.70
2022-10-18T16:26:51.272Z,62.00
2022-10-18T16:29:23.858Z,57.30
2022-10-18T16:31:52.963Z,49.10
2022-10-18T16:34:19.656Z,44.90
2022-10-18T16:36:46.185Z,51.80
2022-10-18T16:39:17.540Z,41.30
2022-10-18T16:41:45.558Z,45.40
2022-10-18T16:44:12.563Z,51.80
2022-10-18T16:46:40.436Z,40.30
2022-10-18T16:49:07.523Z,37.00
2022-10-18T16:51:34.216Z,38.40
2022-10-18T16:54:01.060Z,47.10
2022-10-18T16:56:30.922Z,52.30
2022-10-18T16:58:58.852Z,25.40
2022-10-18T17:01:26.643Z,37.90
2022-10-18T17:03:54.786Z,53.60
2022-10-18T17:06:21.428Z,27.90
2022-10-18T17:08:49.193Z,23.40
2022-10-18T17:11:17.107Z,22.10
2022-10-18T17:13:44.316Z,26.80
2022-10-18T17:16:21.015Z,25.90
2022-10-18T17:18:47.666Z,30.50
2022-10-18T17:21:14.373Z,30.90
2022-10-18T17:23:41.016Z,31.20
2022-10-18T17:26:27.845Z,35.30
2022-10-18T17:28:59.528Z,37.40
2022-10-18T17:31:27.868Z,34.80
2022-10-18T17:33:54.911Z,37.50
2022-10-18T17:36:22.165Z,43.30
2022-10-18T17:38:53.723Z,50.90
2022-10-18T17:41:21.406Z,89.00
2022-10-18T17:43:48.747Z,77.80
2022-10-18T17:46:17.328Z,81.80
2022-10-18T17:48:44.990Z,82.80
2022-10-18T17:51:14.769Z,84.90
2022-10-18T17:53:41.988Z,86.20
2022-10-18T17:56:10.133Z,94.00
2022-10-18T17:58:36.976Z,93.40
2022-10-18T18:01:09.900Z,101.50
2022-10-18T18:03:37.015Z,102.00
2022-10-18T18:06:14.278Z,104.90
2022-10-18T18:08:41.063Z,95.30
2022-10-18T18:11:07.891Z,99.60
2022-10-18T18:13:34.736Z,102.40
2022-10-18T18:16:14.922Z,105.20
2022-10-18T18:18:42.969Z,101.30
2022-10-18T18:21:10.017Z,110.00
2022-10-18T18:23:36.966Z,118.40
2022-10-18T18:26:04.316Z,115.20
2022-10-18T18:28:31.211Z,91.80
2022-10-18T18:30:58.113Z,119.70
2022-10-18T18:33:24.957Z,111.80
2022-10-18T18:35:56.822Z,102.60
2022-10-18T18:38:24.377Z,95.40
2022-10-18T18:41:06.049Z,92.10
2022-10-18T18:43:33.938Z,98.30
2022-10-18T18:46:01.405Z,95.30
2022-10-18T18:48:28.388Z,92.20
2022-10-18T18:50:55.188Z,102.30
2022-10-18T18:53:25.996Z,90.00
2022-10-18T18:56:05.280Z,93.10
2022-10-18T18:58:34.384Z,90.80
2022-10-18T19:01:18.407Z,90.50
2022-10-18T19:03:48.222Z,78.20
2022-10-18T19:06:27.251Z,87.10
2022-10-18T19:09:00.731Z,101.60
2022-10-18T19:11:31.918Z,94.30
2022-10-18T19:14:00.279Z,90.50
2022-10-18T19:16:35.315Z,91.30
2022-10-18T19:19:19.365Z,83.50
2022-10-18T19:21:52.863Z,93.90
2022-10-18T19:24:21.653Z,72.70
2022-10-18T19:26:51.778Z,74.50
2022-10-18T19:29:22.818Z,90.20
2022-10-18T19:31:51.711Z,52.00
2022-10-18T19:34:20.397Z,54.40
2022-10-18T19:36:48.573Z,34.00
2022-10-18T19:39:19.537Z,33.80
2022-10-18T19:41:48.815Z,48.70
2022-10-18T19:44:17.339Z,47.10
2022-10-18T19:46:44.875Z,45.50
2022-10-18T19:49:12.012Z,31.60
2022-10-18T19:51:39.199Z,32.40
2022-10-18T19:54:06.727Z,32.50
2022-10-18T19:56:33.775Z,32.10
2022-10-18T19:59:00.826Z,39.60
2022-10-18T20:01:29.255Z,30.80
2022-10-18T20:03:56.685Z,33.20
2022-10-18T20:06:24.028Z,52.20
2022-10-18T20:08:51.870Z,61.30
2022-10-18T20:11:21.728Z,55.70
2022-10-18T20:13:48.494Z,42.00
2022-10-18T20:16:17.162Z,20.00
2022-10-18T20:18:44.389Z,30.60
2022-10-18T20:21:13.381Z,46.00
2022-10-18T20:23:41.988Z,34.00
2022-10-18T20:26:17.953Z,43.20
2022-10-18T20:28:56.621Z,48.90
2022-10-18T20:31:33.113Z,35.90
2022-10-18T20:34:03.893Z,38.30
2022-10-18T20:36:32.453Z,69.60
2022-10-18T20:38:59.906Z,48.40
2022-10-18T20:41:33.439Z,43.90
2022-10-18T20:44:02.222Z,36.20
2022-10-18T20:46:31.742Z,46.20
2022-10-18T20:48:58.539Z,28.40
2022-10-18T20:51:25.602Z,23.20
2022-10-18T20:53:52.972Z,11.50
2022-10-18T20:56:22.235Z,11.20
2022-10-18T20:58:50.752Z,13.60
2022-10-18T21:01:21.700Z,49.40
2022-10-18T21:03:50.490Z,34.50
2022-10-18T21:06:23.273Z,61.70
2022-10-18T21:09:01.258Z,52.30
2022-10-18T21:11:29.998Z,55.20
2022-10-18T21:13:59.494Z,45.20
2022-10-18T21:16:26.701Z,42.10
2022-10-18T21:18:54.363Z,39.50
2022-10-18T21:21:23.768Z,36.80
2022-10-18T21:23:52.190Z,17.50
2022-10-18T21:26:21.682Z,14.20
2022-10-18T21:28:53.634Z,13.30
2022-10-18T21:31:22.784Z,22.50
2022-10-18T21:34:01.372Z,18.50
2022-10-18T21:36:33.916Z,16.60
2022-10-18T21:39:02.298Z,24.90
2022-10-18T21:41:30.738Z,27.90
2022-10-18T21:43:57.480Z,29.40
2022-10-18T21:46:26.457Z,33.70
2022-10-18T21:48:55.820Z,28.20
2022-10-18T21:51:25.593Z,35.70
2022-10-18T21:53:54.835Z,27.00
2022-10-18T21:56:31.099Z,29.90
2022-10-18T21:58:58.572Z,28.30
2022-10-18T22:01:34.070Z,28.30
2022-10-18T22:04:03.204Z,29.00
2022-10-18T22:06:33.060Z,31.10
2022-10-18T22:09:02.730Z,29.40
2022-10-18T22:11:37.459Z,29.00
2022-10-18T22:14:04.030Z,34.40
2022-10-18T22:16:30.790Z,32.20
2022-10-18T22:18:59.937Z,30.20
2022-10-18T22:21:27.334Z,23.70
2022-10-18T22:23:58.227Z,23.00
2022-10-18T22:26:37.131Z,22.00
2022-10-18T22:29:08.052Z,23.20
2022-10-18T22:31:38.246Z,22.90
2022-10-18T22:34:08.019Z,24.60
2022-10-18T22:36:35.209Z,24.30
2022-10-18T22:39:02.241Z,23.30
2022-10-18T22:41:28.804Z,21.20
2022-10-18T22:43:57.296Z,20.00
2022-10-18T22:46:27.129Z,14.90
2022-10-18T22:48:53.825Z,9.60
2022-10-18T22:51:20.591Z,9.30
2022-10-18T22:53:47.530Z,10.40
2022-10-18T22:56:19.674Z,9.90
2022-10-18T22:58:47.647Z,9.70
2022-10-18T23:01:17.873Z,11.20
2022-10-18T23:03:44.958Z,9.40
2022-10-18T23:06:35.659Z,9.20
2022-10-18T23:09:09.737Z,9.50
2022-10-18T23:11:37.452Z,12.80
2022-10-18T23:14:05.593Z,9.40
2022-10-18T23:16:32.941Z,14.20
2022-10-18T23:18:59.699Z,15.90
2022-10-18T23:21:28.213Z,18.90
2022-10-18T23:23:56.132Z,14.70
2022-10-18T23:26:25.654Z,15.20
2022-10-18T23:28:53.899Z,14.30
2022-10-18T23:31:32.753Z,17.70
2022-10-18T23:34:04.747Z,12.10
2022-10-18T23:36:32.606Z,12.60
2022-10-18T23:38:59.314Z,11.70
2022-10-18T23:41:26.487Z,14.60
2022-10-18T23:43:53.620Z,11.90
2022-10-18T23:46:20.796Z,13.50
2022-10-18T23:48:48.136Z,13.30
2022-10-18T23:51:16.200Z,6.50
2022-10-18T23:53:43.154Z,7.90
2022-10-18T23:56:15.329Z,10.60
2022-10-18T23:58:43.445Z,9.90
